»·PEaware :: ASA705 KLAX-KSEA

ASA705 :: KLAX-KSEA

FLIGHT INFORMATION

Flight Status: Arrived
Operator:
Alaska Airlines
More flights by this operator :: More flights under this callsign
Pilot: Sean T. (30125)
Aircraft: AIRBUS A319
(A319)
More flights by this aircraft type
Origin: KLAX Los Angeles Intl
United States
Destination: KSEA Seattle-Tacoma Intl
United States
More flights between these airports :: More routes between these airports
Route: LADYJ4 CSTRO SHIMR BTG HAWKZ7
File this flight plan on PilotEdge
Remarks:
Altitude:
(Current/Filed)
34,000ft
Speed:
(Current/Filed)
290kts
Departed: 20-Feb-21 07:44 PM
Arrived: 20-Feb-21 10:21 PM
Distance/Time
Traveled:
829nm/2:37
Distance/Time
To Go:
Arrived

Flight Plot

Page will automatically refresh every two minutes.

Flight plan parsing failed; only flown route is shown


Map Options




Map Legend


Flown Route
Filed Route
Departure Airport
Arrival Airport
Navaid (VOR, NDB)
Fix

Horizontal Profiles

Position Reports

Time Latitude Longitude Heading Altitude Ground
Speed
20-Feb-21 19:24 33.940438 -118.402437 84 126ft 0kts
20-Feb-21 19:25 33.940438 -118.402438 84 125ft 0kts
20-Feb-21 19:26 33.940438 -118.402438 84 125ft 0kts
20-Feb-21 19:27 33.940438 -118.402438 84 125ft 0kts
20-Feb-21 19:28 33.940438 -118.402438 84 125ft 0kts
20-Feb-21 19:29 33.940438 -118.402438 84 125ft 0kts
20-Feb-21 19:30 33.940438 -118.402438 84 125ft 0kts
20-Feb-21 19:31 33.940438 -118.402438 84 125ft 0kts
20-Feb-21 19:32 33.940438 -118.402438 84 125ft 0kts
20-Feb-21 19:33 33.940438 -118.402438 84 125ft 0kts
20-Feb-21 19:34 33.940438 -118.402438 84 125ft 0kts
20-Feb-21 19:35 33.940402 -118.402688 81 126ft 2kts
20-Feb-21 19:36 33.940442 -118.403088 178 126ft 1kts
20-Feb-21 19:37 33.940049 -118.402993 172 126ft 0kts
20-Feb-21 19:38 33.940049 -118.402993 172 126ft 0kts
20-Feb-21 19:39 33.938599 -118.402718 130 126ft 9kts
20-Feb-21 19:40 33.939083 -118.397096 84 117ft 22kts
20-Feb-21 19:41 33.939931 -118.388806 83 108ft 26kts
20-Feb-21 19:41 33.940671 -118.381523 81 104ft 24kts
20-Feb-21 19:43 33.940770 -118.380404 96 104ft 2kts
20-Feb-21 19:44 33.939149 -118.386950 263 107ft 100kts
20-Feb-21 19:45 33.933653 -118.440055 268 2273ft 172kts
20-Feb-21 19:46 33.928655 -118.507063 268 4539ft 233kts
20-Feb-21 19:46 33.922565 -118.575318 270 7059ft 253kts
20-Feb-21 19:47 33.945460 -118.646157 331 7997ft 243kts
20-Feb-21 19:48 34.007904 -118.676128 355 8000ft 246kts
20-Feb-21 19:50 34.088356 -118.669475 4 8002ft 251kts
20-Feb-21 19:51 34.156617 -118.653503 5 9857ft 254kts
20-Feb-21 19:51 34.216039 -118.639455 5 12139ft 272kts
20-Feb-21 19:52 34.291328 -118.643522 345 14861ft 280kts
20-Feb-21 19:53 34.368677 -118.661052 343 17592ft 286kts
20-Feb-21 19:54 34.445997 -118.678196 342 20321ft 281kts
20-Feb-21 19:55 34.520507 -118.692518 339 23036ft 262kts
20-Feb-21 19:56 34.589943 -118.706175 336 24992ft 252kts
20-Feb-21 19:57 34.658442 -118.719666 335 26433ft 252kts
20-Feb-21 19:58 34.727426 -118.738322 322 27352ft 252kts
20-Feb-21 19:59 34.789875 -118.780064 318 28170ft 266kts
20-Feb-21 20:00 34.856742 -118.825936 318 28987ft 287kts
20-Feb-21 20:01 34.928488 -118.875395 320 29802ft 305kts
20-Feb-21 20:02 35.004022 -118.927509 322 30607ft 320kts
20-Feb-21 20:03 35.083140 -118.982078 324 31414ft 332kts
20-Feb-21 20:04 35.164720 -119.038487 329 32223ft 343kts
20-Feb-21 20:05 35.248876 -119.096543 328 33024ft 351kts
20-Feb-21 20:06 35.334300 -119.156003 328 33828ft 357kts
20-Feb-21 20:07 35.421435 -119.214628 332 34411ft 367kts
20-Feb-21 20:08 35.520917 -119.257181 342 34417ft 393kts
20-Feb-21 20:09 35.630091 -119.289971 343 34417ft 414kts
20-Feb-21 20:10 35.742646 -119.323661 342 34425ft 418kts
20-Feb-21 20:11 35.855331 -119.357594 342 34418ft 416kts
20-Feb-21 20:12 35.967731 -119.391496 343 34422ft 417kts
20-Feb-21 20:13 36.080297 -119.425513 342 34426ft 418kts
20-Feb-21 20:14 36.193225 -119.459678 343 34419ft 416kts
20-Feb-21 20:15 36.305852 -119.493841 342 34422ft 418kts
20-Feb-21 20:16 36.418575 -119.528257 342 34419ft 418kts
20-Feb-21 20:17 36.531071 -119.562652 342 34415ft 417kts
20-Feb-21 20:18 36.643300 -119.597180 343 34407ft 418kts
20-Feb-21 20:19 36.756110 -119.631885 342 34402ft 421kts
20-Feb-21 20:20 36.868789 -119.667005 342 34407ft 418kts
20-Feb-21 20:21 36.981166 -119.702065 342 34406ft 418kts
20-Feb-21 20:22 37.090689 -119.736394 346 34407ft 397kts
20-Feb-21 20:23 37.196889 -119.769227 347 34405ft 394kts
20-Feb-21 20:24 37.302705 -119.802177 347 34415ft 392kts
20-Feb-21 20:25 37.408516 -119.835278 347 34418ft 392kts
20-Feb-21 20:26 37.514370 -119.868561 347 34422ft 392kts
20-Feb-21 20:27 37.619739 -119.901755 347 34419ft 393kts
20-Feb-21 20:28 37.725377 -119.935141 347 34417ft 392kts
20-Feb-21 20:29 37.831230 -119.968678 347 34416ft 392kts
20-Feb-21 20:30 37.936843 -120.002234 347 34421ft 392kts
20-Feb-21 20:31 38.042574 -120.036004 347 34421ft 393kts
20-Feb-21 20:32 38.148419 -120.069764 347 34419ft 392kts
20-Feb-21 20:33 38.254081 -120.103311 348 34399ft 392kts
20-Feb-21 20:34 38.360221 -120.134565 348 34394ft 392kts
20-Feb-21 20:35 38.466251 -120.165925 348 34397ft 393kts
20-Feb-21 20:36 38.572298 -120.197453 348 34381ft 393kts
20-Feb-21 20:37 38.678579 -120.229128 348 34371ft 393kts
20-Feb-21 20:38 38.784551 -120.260815 348 34371ft 392kts
20-Feb-21 20:39 38.890536 -120.292591 348 34374ft 392kts
20-Feb-21 20:40 38.995236 -120.324112 348 34381ft 382kts
20-Feb-21 20:41 39.097317 -120.354909 348 34384ft 376kts
20-Feb-21 20:42 39.199078 -120.385598 348 34400ft 376kts
20-Feb-21 20:43 39.300892 -120.416483 348 34408ft 376kts
20-Feb-21 20:44 39.402479 -120.447402 348 34409ft 376kts
20-Feb-21 20:45 39.503940 -120.478375 348 34407ft 376kts
20-Feb-21 20:46 39.605697 -120.509562 348 34406ft 376kts
20-Feb-21 20:47 39.707134 -120.540723 348 34406ft 376kts
20-Feb-21 20:48 39.808633 -120.572003 348 34420ft 376kts
20-Feb-21 20:49 39.910194 -120.603409 348 34442ft 376kts
20-Feb-21 20:50 40.011640 -120.634859 348 34449ft 376kts
20-Feb-21 20:51 40.113247 -120.666709 347 34454ft 376kts
20-Feb-21 20:52 40.214879 -120.698572 347 34450ft 376kts
20-Feb-21 20:53 40.316358 -120.730354 347 34449ft 376kts
20-Feb-21 20:54 40.417850 -120.762237 347 34450ft 376kts
20-Feb-21 20:55 40.519074 -120.794066 348 34449ft 376kts
20-Feb-21 20:56 40.620612 -120.826075 348 34449ft 376kts
20-Feb-21 20:57 40.722126 -120.858217 347 34450ft 376kts
20-Feb-21 20:58 40.823681 -120.890507 347 34449ft 376kts
20-Feb-21 20:59 40.925072 -120.922826 348 34444ft 376kts
20-Feb-21 21:00 41.026590 -120.955249 347 34434ft 379kts
20-Feb-21 21:01 41.129870 -120.988346 346 34433ft 384kts
20-Feb-21 21:02 41.233105 -121.021533 346 34432ft 382kts
20-Feb-21 21:03 41.335726 -121.054679 347 34433ft 380kts
20-Feb-21 21:04 41.437128 -121.087539 347 34432ft 378kts
20-Feb-21 21:05 41.538678 -121.120549 347 34432ft 375kts
20-Feb-21 21:06 41.639536 -121.153445 348 34433ft 373kts
20-Feb-21 21:07 41.740149 -121.186371 348 34443ft 372kts
20-Feb-21 21:08 41.839985 -121.219133 348 34456ft 371kts
20-Feb-21 21:09 41.940076 -121.252075 348 34458ft 371kts
20-Feb-21 21:10 42.039783 -121.285001 348 34458ft 370kts
20-Feb-21 21:11 42.139849 -121.318098 348 34459ft 371kts
20-Feb-21 21:12 42.239598 -121.351175 348 34458ft 370kts
20-Feb-21 21:13 42.339466 -121.384467 348 34458ft 370kts
20-Feb-21 21:14 42.439427 -121.417918 348 34458ft 371kts
20-Feb-21 21:15 42.539108 -121.451374 348 34458ft 371kts
20-Feb-21 21:16 42.639083 -121.485048 348 34458ft 370kts
20-Feb-21 21:17 42.738736 -121.518736 348 34458ft 370kts
20-Feb-21 21:18 42.838507 -121.552581 348 34458ft 371kts
20-Feb-21 21:19 42.938473 -121.586562 348 34458ft 371kts
20-Feb-21 21:20 43.038339 -121.620617 347 34458ft 371kts
20-Feb-21 21:21 43.138530 -121.654975 346 34459ft 372kts
20-Feb-21 21:22 43.238609 -121.689724 346 34452ft 371kts
20-Feb-21 21:23 43.338484 -121.724265 346 34451ft 372kts
20-Feb-21 21:24 43.438605 -121.758924 346 34451ft 372kts
20-Feb-21 21:25 43.538652 -121.793664 346 34451ft 372kts
20-Feb-21 21:26 43.638546 -121.828443 346 34451ft 372kts
20-Feb-21 21:27 43.738576 -121.863411 346 34451ft 371kts
20-Feb-21 21:28 43.838535 -121.898482 346 34451ft 372kts
20-Feb-21 21:29 43.938519 -121.933668 346 34451ft 372kts
20-Feb-21 21:30 44.038596 -121.969019 346 34452ft 372kts
20-Feb-21 21:31 44.138645 -122.004434 346 34452ft 372kts
20-Feb-21 21:32 44.238631 -122.039893 346 34452ft 372kts
20-Feb-21 21:33 44.338786 -122.075615 346 34451ft 372kts
20-Feb-21 21:34 44.438878 -122.111467 346 34466ft 372kts
20-Feb-21 21:35 44.538703 -122.147347 346 34504ft 372kts
20-Feb-21 21:36 44.638789 -122.183485 346 34529ft 371kts
20-Feb-21 21:37 44.738525 -122.219571 346 34539ft 371kts
20-Feb-21 21:38 44.838342 -122.255846 346 34540ft 371kts
20-Feb-21 21:39 44.938369 -122.292330 346 34535ft 371kts
20-Feb-21 21:40 45.037859 -122.328694 346 34532ft 369kts
20-Feb-21 21:41 45.136937 -122.365001 345 34536ft 366kts
20-Feb-21 21:42 45.235249 -122.401185 345 34529ft 367kts
20-Feb-21 21:43 45.332390 -122.437098 344 32654ft 361kts
20-Feb-21 21:44 45.430618 -122.473599 343 30683ft 371kts
20-Feb-21 21:45 45.531294 -122.511123 343 28724ft 380kts
20-Feb-21 21:46 45.634545 -122.549672 342 26764ft 390kts
20-Feb-21 21:47 45.740845 -122.589115 343 24782ft 402kts
20-Feb-21 21:48 45.851611 -122.617916 346 23814ft 408kts
20-Feb-21 21:49 45.962964 -122.645425 346 22506ft 403kts
20-Feb-21 21:50 46.073466 -122.673191 345 22496ft 404kts
20-Feb-21 21:51 46.182537 -122.695786 346 21339ft 378kts
20-Feb-21 21:52 46.281684 -122.715287 346 19526ft 346kts
20-Feb-21 21:53 46.374960 -122.725180 351 17720ft 329kts
20-Feb-21 21:54 46.464321 -122.728368 351 15924ft 315kts
20-Feb-21 21:55 46.550381 -122.731459 351 14119ft 306kts
20-Feb-21 21:56 46.634151 -122.734446 352 12416ft 299kts
20-Feb-21 21:57 46.717115 -122.737398 352 12042ft 299kts
20-Feb-21 21:58 46.799478 -122.722598 26 12040ft 320kts
20-Feb-21 21:59 46.869076 -122.641186 31 12032ft 305kts
20-Feb-21 22:01 46.935885 -122.567564 21 12028ft 295kts
20-Feb-21 22:02 47.011846 -122.530584 10 11417ft 287kts
20-Feb-21 22:03 47.088424 -122.499997 3 10440ft 283kts
20-Feb-21 22:04 47.166433 -122.485387 1 10019ft 283kts
20-Feb-21 22:05 47.244546 -122.472719 0 9468ft 276kts
20-Feb-21 22:06 47.318304 -122.461457 0 8481ft 263kts
20-Feb-21 22:07 47.390794 -122.456101 354 7556ft 259kts
20-Feb-21 22:08 47.460467 -122.456124 354 7012ft 238kts
20-Feb-21 22:09 47.527546 -122.457147 354 5636ft 240kts
20-Feb-21 22:10 47.592119 -122.459358 354 4028ft 226kts
20-Feb-21 22:11 47.653104 -122.463017 354 3007ft 204kts
20-Feb-21 22:12 47.687770 -122.422397 96 3028ft 182kts
20-Feb-21 22:13 47.688021 -122.351108 95 3016ft 171kts
20-Feb-21 22:14 47.675370 -122.293516 183 3012ft 142kts
20-Feb-21 22:15 47.637739 -122.304226 185 3023ft 139kts
20-Feb-21 22:16 47.599112 -122.306083 183 3017ft 138kts
20-Feb-21 22:17 47.560792 -122.306792 181 2346ft 137kts
20-Feb-21 22:18 47.526073 -122.307153 181 1673ft 121kts
20-Feb-21 22:19 47.492253 -122.307668 182 1035ft 121kts
20-Feb-21 22:20 47.457602 -122.307895 178 439ft 116kts
20-Feb-21 22:21 47.445794 -122.306664 131 394ft 4kts
20-Feb-21 22:22 47.442026 -122.306347 180 384ft 18kts
20-Feb-21 22:23 47.439923 -122.303368 87 379ft 10kts
20-Feb-21 22:23 47.441138 -122.303269 311 382ft 0kts

Navigation Log

Ident Type
Flight plan parsing failed, navigation log unavailable